Luncarty, United Kingdom
Current Conditions -  °F | °C
As of 6:50 PM on Monday 20 Oct 2014 (Local Time) from EGPN Reporting Station
Rain Showers Rain Showers  
Wind Chill: 54°   Ceiling: 3500
Heat Index: 54°   Visibility: 6mi
Dew Point: 50°   Wind: 18mph
Humidity: 88%   Direction: 220°SW
Pressure: 29.59"   Gusts: NA
Location:  56.45°N, 3.47°W
Report Text: EGPN 201750Z 22016KT 9999 VCSH FEW023 BKN035 12/10 Q1002
Loading
Personal Weather Stations






























Interactive Weather Map
Tropical Storm Tracking
New forecast layout! Learn more

10-Day Weather Forecast

Advertisements
Track Severe Weather on mobile